Time;durP1;ratioP1;P1;durP2;ratioP2;P2;SDS_P1;SDS_P2;PMS_P1;PMS_P2;Temp;Humidity;BMP_temperature;BMP_pressure;BME280_temperature;BME280_humidity;BME280_pressure;Samples;Min_cycle;Max_cycle;Signal;HPM_P1;HPM_P2
2021/10/20 00:02:10;;;;;;;5.37;5.00;;;13.50;99.90;;;;;;5061240;28;20454;-62
2021/10/20 00:04:37;;;;;;;6.20;5.70;;;13.50;99.90;;;;;;5071554;28;20440;-62
2021/10/20 00:07:03;;;;;;;5.23;4.83;;;13.50;99.90;;;;;;5071322;28;20446;-60
2021/10/20 00:09:31;;;;;;;5.10;4.70;;;13.50;99.90;;;;;;5071118;28;20478;-62
2021/10/20 00:11:58;;;;;;;8.63;5.40;;;13.50;99.90;;;;;;5063889;28;20456;-62
2021/10/20 00:14:25;;;;;;;5.60;5.10;;;13.50;99.90;;;;;;5052621;28;20461;-62
2021/10/20 00:16:53;;;;;;;5.20;4.90;;;13.50;99.90;;;;;;5051351;28;20440;-62
2021/10/20 00:19:19;;;;;;;6.40;5.27;;;13.40;99.90;;;;;;5050993;28;20451;-62
2021/10/20 00:21:46;;;;;;;5.53;5.13;;;13.40;99.90;;;;;;5057400;28;20458;-62
2021/10/20 00:24:13;;;;;;;6.33;5.83;;;13.40;99.90;;;;;;5070920;28;20966;-62
2021/10/20 00:26:41;;;;;;;6.60;5.30;;;13.50;99.90;;;;;;5071192;28;20466;-62
2021/10/20 00:29:07;;;;;;;7.83;5.30;;;13.40;99.90;;;;;;5070926;28;20479;-61
2021/10/20 00:31:34;;;;;;;5.87;5.40;;;13.40;99.90;;;;;;5066296;28;20468;-61
2021/10/20 00:34:01;;;;;;;6.00;5.50;;;13.40;99.90;;;;;;5051119;28;20453;-61
2021/10/20 00:36:27;;;;;;;7.47;5.63;;;13.40;99.90;;;;;;5051092;28;20444;-60
2021/10/20 00:38:54;;;;;;;6.93;6.27;;;13.40;99.90;;;;;;5050928;28;20436;-59
2021/10/20 00:41:21;;;;;;;6.03;5.57;;;13.40;99.90;;;;;;5053311;28;20476;-62
2021/10/20 00:43:49;;;;;;;7.80;5.80;;;13.50;99.90;;;;;;5071111;28;20505;-62
2021/10/20 00:46:26;;;;;;;6.27;5.87;;;13.40;99.90;;;;;;5071083;28;20941;-62
2021/10/20 00:48:53;;;;;;;6.17;5.63;;;13.50;99.90;;;;;;5070802;28;20479;-61
2021/10/20 00:51:19;;;;;;;6.30;5.80;;;13.50;99.90;;;;;;5069201;28;20463;-60
2021/10/20 00:53:46;;;;;;;5.23;4.87;;;13.50;99.90;;;;;;5071136;28;20809;-61
2021/10/20 00:56:13;;;;;;;6.00;5.53;;;13.40;99.90;;;;;;5071090;28;20451;-62
2021/10/20 00:58:39;;;;;;;8.33;6.27;;;13.40;99.90;;;;;;5070900;28;20494;-62
2021/10/20 01:01:07;;;;;;;8.97;5.80;;;13.40;99.90;;;;;;5070470;28;20995;-62
2021/10/20 01:03:34;;;;;;;6.63;6.03;;;13.40;99.90;;;;;;5066327;28;20451;-61
2021/10/20 01:06:04;;;;;;;5.60;5.20;;;13.40;99.90;;;;;;5070935;28;20451;-62
2021/10/20 01:08:31;;;;;;;5.90;5.50;;;13.40;99.90;;;;;;5070616;28;20581;-62
2021/10/20 01:10:57;;;;;;;7.83;6.40;;;13.40;99.90;;;;;;5070652;28;20510;-60
2021/10/20 01:13:25;;;;;;;6.07;5.67;;;13.40;99.90;;;;;;5052273;28;20447;-61
2021/10/20 01:15:51;;;;;;;7.40;5.73;;;13.40;99.90;;;;;;5054389;28;21015;-59
2021/10/20 01:18:20;;;;;;;6.70;6.20;;;13.40;99.90;;;;;;5054112;28;20922;-59
2021/10/20 01:20:51;;;;;;;7.30;6.70;;;13.40;99.90;;;;;;5054016;28;20479;-59
2021/10/20 01:23:19;;;;;;;7.07;5.80;;;13.30;99.90;;;;;;5055265;28;20498;-60
2021/10/20 01:25:46;;;;;;;7.20;6.60;;;13.30;99.90;;;;;;5054371;28;20464;-60
2021/10/20 01:28:13;;;;;;;5.70;5.30;;;13.30;99.90;;;;;;5053800;28;20506;-60
2021/10/20 01:30:40;;;;;;;7.47;5.90;;;13.30;99.90;;;;;;5063443;28;20471;-58
2021/10/20 01:33:06;;;;;;;6.70;6.10;;;13.30;99.90;;;;;;5074260;28;20785;-56
2021/10/20 01:35:33;;;;;;;5.97;5.57;;;13.30;99.90;;;;;;5074008;28;20793;-60
2021/10/20 01:38:01;;;;;;;6.03;5.43;;;13.30;99.90;;;;;;5065787;28;20956;-60
2021/10/20 01:40:29;;;;;;;5.67;5.27;;;13.40;99.90;;;;;;5065560;28;20467;-62
2021/10/20 01:42:56;;;;;;;6.47;6.00;;;13.30;99.90;;;;;;5073951;28;20447;-57
2021/10/20 01:45:23;;;;;;;6.73;6.23;;;13.30;99.90;;;;;;5073750;28;20447;-61
2021/10/20 01:47:50;;;;;;;7.25;6.10;;;13.30;99.90;;;;;;5068264;28;20444;-62
2021/10/20 01:50:17;;;;;;;6.70;6.17;;;13.30;99.90;;;;;;5054181;28;20475;-62
2021/10/20 01:52:43;;;;;;;7.50;6.60;;;13.30;99.90;;;;;;5053592;28;20448;-62
2021/10/20 01:55:12;;;;;;;6.20;5.70;;;13.30;99.90;;;;;;5053655;28;20840;-62
2021/10/20 01:57:40;;;;;;;8.03;5.93;;;13.30;99.90;;;;;;5057459;28;20451;-62
2021/10/20 02:00:08;;;;;;;6.37;5.87;;;13.30;99.90;;;;;;5071675;28;20462;-61
2021/10/20 02:02:35;;;;;;;6.50;6.10;;;13.30;99.90;;;;;;5073724;28;20443;-61
2021/10/20 02:05:02;;;;;;;6.50;5.90;;;13.20;99.90;;;;;;5073338;28;20439;-62
2021/10/20 02:07:28;;;;;;;5.87;5.57;;;13.20;99.90;;;;;;5070668;28;20831;-61
2021/10/20 02:09:55;;;;;;;5.90;5.50;;;13.20;99.90;;;;;;5053017;28;20484;-62
2021/10/20 02:12:22;;;;;;;7.13;6.63;;;13.20;99.90;;;;;;5053295;28;20949;-61
2021/10/20 02:14:50;;;;;;;6.30;5.90;;;13.20;99.90;;;;;;5053258;28;20447;-60
2021/10/20 02:17:17;;;;;;;6.80;6.30;;;13.20;99.90;;;;;;5067418;28;20451;-62
2021/10/20 02:19:43;;;;;;;6.40;5.90;;;13.10;99.90;;;;;;5072651;28;20478;-60
2021/10/20 02:22:10;;;;;;;8.13;7.37;;;13.10;99.90;;;;;;5073195;28;20466;-61
2021/10/20 02:24:37;;;;;;;7.53;6.97;;;13.10;99.90;;;;;;5073054;28;20501;-61
2021/10/20 02:27:04;;;;;;;6.80;6.33;;;13.10;99.90;;;;;;5060585;28;20452;-62
2021/10/20 02:29:31;;;;;;;7.27;6.60;;;13.10;99.90;;;;;;5052642;28;20483;-62
2021/10/20 02:31:59;;;;;;;6.97;6.47;;;13.10;99.90;;;;;;5052892;28;20440;-62
2021/10/20 02:34:26;;;;;;;7.10;6.53;;;13.10;99.90;;;;;;5056901;28;20451;-62
2021/10/20 02:36:53;;;;;;;7.87;7.17;;;13.00;99.90;;;;;;5072962;28;20782;-62
2021/10/20 02:39:19;;;;;;;6.70;6.20;;;13.00;99.90;;;;;;5072502;28;20442;-62
2021/10/20 02:41:46;;;;;;;7.60;7.00;;;13.00;99.90;;;;;;5072702;28;20964;-59
2021/10/20 02:44:13;;;;;;;6.87;6.30;;;13.00;99.90;;;;;;5070418;28;20808;-62
2021/10/20 02:46:40;;;;;;;6.40;5.90;;;13.00;99.90;;;;;;5052588;28;20452;-62
2021/10/20 02:49:08;;;;;;;6.67;6.13;;;13.00;99.90;;;;;;5052198;28;20475;-62
2021/10/20 02:51:35;;;;;;;13.30;7.93;;;13.00;99.90;;;;;;5052489;28;20829;-62
2021/10/20 02:54:02;;;;;;;6.97;6.40;;;13.00;99.90;;;;;;5052609;28;20452;-62
2021/10/20 02:56:29;;;;;;;7.70;6.87;;;13.00;99.90;;;;;;5072343;28;20443;-62
2021/10/20 02:58:56;;;;;;;8.33;7.63;;;13.00;99.90;;;;;;5072427;28;20819;-62
2021/10/20 03:01:23;;;;;;;7.80;7.00;;;12.90;99.90;;;;;;5072340;28;20471;-62
2021/10/20 03:03:50;;;;;;;8.00;6.90;;;12.90;99.90;;;;;;5072254;28;20439;-62
2021/10/20 03:06:18;;;;;;;7.80;6.97;;;12.90;99.90;;;;;;5053276;28;20448;-62
2021/10/20 03:08:45;;;;;;;7.60;6.97;;;12.90;99.90;;;;;;5051910;28;20519;-59
2021/10/20 03:11:12;;;;;;;7.67;6.97;;;12.90;99.90;;;;;;5052067;28;20460;-62
2021/10/20 03:13:39;;;;;;;7.63;6.93;;;12.90;99.90;;;;;;5066494;28;20936;-61
2021/10/20 03:16:06;;;;;;;7.50;5.70;;;12.90;99.90;;;;;;5072057;28;20454;-59
2021/10/20 03:18:33;;;;;;;6.80;6.30;;;13.00;99.90;;;;;;5071841;28;20443;-59
2021/10/20 03:21:00;;;;;;;7.20;6.70;;;13.00;99.90;;;;;;5071794;28;21007;-60
2021/10/20 03:23:28;;;;;;;7.10;6.23;;;13.00;99.90;;;;;;5060544;28;20460;-61
2021/10/20 03:25:54;;;;;;;6.60;6.20;;;13.00;99.90;;;;;;5052044;28;20447;-61
2021/10/20 03:28:21;;;;;;;5.90;5.50;;;13.00;99.90;;;;;;5051516;28;20448;-61
2021/10/20 03:30:48;;;;;;;6.67;6.17;;;13.00;99.90;;;;;;5051788;28;20460;-62
2021/10/20 03:33:15;;;;;;;6.07;5.67;;;13.00;99.90;;;;;;5062355;28;20482;-62
2021/10/20 03:35:41;;;;;;;7.97;6.80;;;13.00;99.90;;;;;;5071481;28;20446;-61
2021/10/20 03:38:09;;;;;;;7.47;6.90;;;13.00;99.90;;;;;;5070907;28;20451;-62
2021/10/20 03:40:37;;;;;;;7.03;6.43;;;13.00;99.90;;;;;;5071641;28;20459;-60
2021/10/20 03:43:05;;;;;;;6.03;5.63;;;13.10;99.90;;;;;;5062146;28;20949;-61
2021/10/20 03:45:32;;;;;;;7.00;6.30;;;13.10;99.90;;;;;;5051630;28;20454;-62
2021/10/20 03:47:59;;;;;;;6.50;5.93;;;13.10;99.90;;;;;;5051477;28;20448;-61
2021/10/20 03:50:26;;;;;;;6.80;6.30;;;13.10;99.90;;;;;;5051392;28;20480;-61
2021/10/20 03:52:53;;;;;;;6.10;5.60;;;13.20;99.90;;;;;;5052175;28;20448;-62
2021/10/20 03:55:20;;;;;;;7.23;5.87;;;13.20;99.90;;;;;;5051600;28;20475;-62
2021/10/20 03:57:48;;;;;;;5.80;5.50;;;13.30;99.90;;;;;;5051467;28;20444;-62
2021/10/20 04:00:17;;;;;;;7.07;6.47;;;13.30;99.90;;;;;;5051418;28;21004;-62
2021/10/20 04:02:45;;;;;;;7.37;6.90;;;13.30;99.90;;;;;;5057081;28;20444;-62
2021/10/20 04:05:12;;;;;;;6.77;6.23;;;13.40;99.90;;;;;;5071523;28;20446;-60
2021/10/20 04:07:40;;;;;;;8.17;7.47;;;13.40;99.90;;;;;;5071386;28;20447;-61
2021/10/20 04:10:09;;;;;;;8.00;7.40;;;13.40;99.90;;;;;;5071082;28;20589;-61
2021/10/20 04:12:35;;;;;;;7.70;7.20;;;13.40;99.90;;;;;;5066698;28;20441;-62
2021/10/20 04:15:05;;;;;;;10.27;7.00;;;13.40;99.90;;;;;;5051285;28;20447;-62
2021/10/20 04:17:31;;;;;;;8.17;7.50;;;13.40;99.90;;;;;;5051317;28;20451;-59
2021/10/20 04:19:58;;;;;;;8.63;7.93;;;13.40;99.90;;;;;;5091917;22;20461;-62
2021/10/20 04:22:25;;;;;;;7.03;6.50;;;13.40;99.90;;;;;;5062077;28;20616;-62
2021/10/20 04:24:52;;;;;;;8.30;7.63;;;13.40;99.90;;;;;;5073288;28;20439;-61
2021/10/20 04:27:18;;;;;;;8.67;7.97;;;13.40;99.90;;;;;;5073672;28;20439;-62
2021/10/20 04:29:45;;;;;;;8.00;7.30;;;13.40;99.90;;;;;;5073725;28;20483;-62
2021/10/20 04:32:13;;;;;;;8.83;8.10;;;13.40;99.90;;;;;;5074740;28;20450;-63
2021/10/20 04:34:40;;;;;;;8.40;7.90;;;13.40;99.90;;;;;;5078057;28;20451;-62
2021/10/20 04:37:06;;;;;;;7.30;6.90;;;13.40;99.90;;;;;;5074981;28;20463;-62
2021/10/20 04:39:33;;;;;;;7.77;7.33;;;13.40;99.90;;;;;;5070299;28;20466;-63
2021/10/20 04:42:00;;;;;;;8.50;7.77;;;13.40;99.90;;;;;;5056537;28;20452;-61
2021/10/20 04:44:26;;;;;;;8.17;7.57;;;13.40;99.90;;;;;;5052314;28;20440;-62
2021/10/20 04:46:53;;;;;;;10.23;9.43;;;13.50;99.90;;;;;;5052600;28;20439;-62
2021/10/20 04:49:21;;;;;;;8.43;8.00;;;13.50;99.90;;;;;;5055266;28;20494;-62
2021/10/20 04:51:48;;;;;;;8.03;7.53;;;13.60;99.90;;;;;;5055657;28;20475;-62
2021/10/20 04:54:15;;;;;;;8.07;7.67;;;13.60;99.90;;;;;;5055979;28;20452;-63
2021/10/20 04:56:42;;;;;;;8.53;7.93;;;13.60;99.90;;;;;;5056269;28;20848;-62
2021/10/20 04:59:08;;;;;;;8.10;7.50;;;13.60;99.90;;;;;;5056115;28;20443;-62
2021/10/20 05:01:35;;;;;;;9.50;9.00;;;13.70;99.90;;;;;;5056773;28;20471;-62
2021/10/20 05:04:02;;;;;;;8.90;8.30;;;13.70;99.90;;;;;;5056556;28;20455;-62
2021/10/20 05:06:30;;;;;;;8.50;7.83;;;13.80;99.90;;;;;;5056721;28;20447;-62
2021/10/20 05:08:57;;;;;;;8.93;8.43;;;13.80;99.90;;;;;;5056881;28;20448;-62
2021/10/20 05:11:23;;;;;;;8.30;7.87;;;13.80;99.90;;;;;;5056712;28;20844;-63
2021/10/20 05:13:50;;;;;;;8.10;7.80;;;13.80;99.90;;;;;;5056765;28;20448;-63
2021/10/20 05:16:16;;;;;;;9.57;9.07;;;13.80;99.90;;;;;;5056384;28;20938;-61
2021/10/20 05:18:43;;;;;;;8.80;8.30;;;13.80;99.90;;;;;;5056419;28;20455;-63
2021/10/20 05:21:10;;;;;;;9.10;8.50;;;13.90;99.90;;;;;;5056825;28;20468;-63
2021/10/20 05:23:38;;;;;;;8.97;8.47;;;13.90;99.90;;;;;;5057149;28;20860;-62
2021/10/20 05:26:05;;;;;;;9.10;8.60;;;13.90;99.90;;;;;;5058065;28;20441;-62
2021/10/20 05:28:31;;;;;;;9.63;8.73;;;14.00;99.90;;;;;;5058031;28;20452;-63
2021/10/20 05:30:58;;;;;;;9.80;8.70;;;14.00;99.90;;;;;;5057563;28;20862;-63
2021/10/20 05:33:25;;;;;;;10.30;9.70;;;14.00;99.90;;;;;;5056830;28;20478;-62
2021/10/20 05:35:52;;;;;;;9.63;9.13;;;14.10;99.90;;;;;;5057076;28;20440;-61
2021/10/20 05:38:18;;;;;;;10.20;9.60;;;14.20;99.90;;;;;;5057246;28;20784;-62
2021/10/20 05:40:46;;;;;;;9.73;9.30;;;14.20;99.90;;;;;;5056721;28;20534;-61
2021/10/20 05:43:13;;;;;;;10.03;9.43;;;14.20;99.90;;;;;;5057169;28;20444;-61
2021/10/20 05:45:40;;;;;;;10.40;9.80;;;14.30;99.90;;;;;;5057350;28;20508;-61
2021/10/20 05:48:07;;;;;;;10.07;9.50;;;14.30;99.90;;;;;;5056467;28;20440;-62
2021/10/20 05:50:34;;;;;;;9.90;9.30;;;14.40;99.90;;;;;;5056364;28;20480;-61
2021/10/20 05:53:00;;;;;;;11.63;10.83;;;14.40;99.90;;;;;;5057164;28;20474;-61
2021/10/20 05:55:27;;;;;;;11.07;10.57;;;14.50;99.90;;;;;;5056786;28;20444;-62
2021/10/20 05:57:55;;;;;;;12.03;11.30;;;14.50;99.90;;;;;;5055864;28;20447;-61
2021/10/20 06:00:22;;;;;;;13.30;12.30;;;14.60;99.90;;;;;;5055669;28;20459;-62
2021/10/20 06:02:48;;;;;;;12.60;11.90;;;14.60;99.90;;;;;;5056922;28;20440;-62
2021/10/20 06:05:15;;;;;;;11.60;11.10;;;14.70;99.90;;;;;;5056340;28;20440;-63
2021/10/20 06:07:43;;;;;;;12.27;11.50;;;14.80;99.90;;;;;;5056909;28;20455;-61
2021/10/20 06:10:11;;;;;;;13.33;12.60;;;14.80;99.90;;;;;;5058757;28;20484;-62
2021/10/20 06:12:38;;;;;;;12.33;11.80;;;14.90;99.90;;;;;;5057874;28;20801;-62
2021/10/20 06:15:07;;;;;;;13.90;13.13;;;14.90;99.90;;;;;;5055892;28;20448;-62
2021/10/20 06:17:34;;;;;;;13.53;12.83;;;15.00;99.90;;;;;;5056353;28;20959;-63
2021/10/20 06:20:01;;;;;;;13.50;12.70;;;15.10;99.90;;;;;;5055598;28;20533;-62
2021/10/20 06:22:28;;;;;;;13.27;12.60;;;15.10;99.90;;;;;;5056040;28;20780;-63
2021/10/20 06:24:54;;;;;;;13.27;12.63;;;15.20;99.90;;;;;;5056059;28;20439;-61
2021/10/20 06:27:21;;;;;;;14.13;13.33;;;15.20;99.90;;;;;;5055688;28;20448;-63
2021/10/20 06:29:48;;;;;;;14.90;14.10;;;15.30;99.90;;;;;;5055732;28;20845;-62
2021/10/20 06:32:16;;;;;;;13.73;12.93;;;15.40;99.90;;;;;;5056301;28;20455;-63
2021/10/20 06:34:43;;;;;;;14.73;14.03;;;15.40;99.90;;;;;;5057613;28;20758;-63
2021/10/20 06:37:09;;;;;;;14.10;13.30;;;15.50;99.90;;;;;;5057617;28;20448;-62
2021/10/20 06:39:36;;;;;;;15.30;14.20;;;15.50;99.90;;;;;;5055288;28;20843;-63
2021/10/20 06:42:03;;;;;;;15.17;14.27;;;15.50;99.90;;;;;;5056565;28;20448;-61
2021/10/20 06:44:30;;;;;;;15.87;15.03;;;15.50;99.90;;;;;;5055486;28;20448;-63
2021/10/20 06:46:57;;;;;;;14.80;13.90;;;15.50;99.90;;;;;;5055916;28;20448;-62
2021/10/20 06:49:25;;;;;;;14.87;14.20;;;15.50;99.90;;;;;;5055187;28;20436;-62
2021/10/20 06:51:51;;;;;;;14.70;13.90;;;15.60;99.90;;;;;;5055175;28;20464;-62
2021/10/20 06:54:19;;;;;;;13.87;13.17;;;15.60;99.90;;;;;;5055243;28;20440;-61
2021/10/20 06:56:46;;;;;;;15.80;14.90;;;15.70;99.90;;;;;;5057101;28;20455;-62
2021/10/20 06:59:13;;;;;;;15.30;14.30;;;15.80;99.90;;;;;;5056496;28;20768;-62
2021/10/20 07:01:40;;;;;;;16.00;15.00;;;15.80;99.90;;;;;;5056809;28;20463;-63
2021/10/20 07:04:06;;;;;;;16.00;14.93;;;15.80;99.90;;;;;;5056939;28;20814;-63
2021/10/20 07:06:37;;;;;;;14.90;14.20;;;15.90;99.90;;;;;;5057614;28;20455;-63
2021/10/20 07:09:04;;;;;;;15.73;14.83;;;16.00;99.90;;;;;;5057696;28;20475;-62
2021/10/20 07:11:31;;;;;;;15.70;14.80;;;16.00;99.90;;;;;;5055822;28;21067;-63
2021/10/20 07:13:57;;;;;;;14.80;14.20;;;16.00;99.90;;;;;;5056059;28;20451;-61
2021/10/20 07:16:24;;;;;;;15.70;14.80;;;16.00;99.90;;;;;;5055927;28;20451;-63
2021/10/20 07:18:51;;;;;;;16.20;15.00;;;16.10;99.90;;;;;;5057391;28;20451;-63
2021/10/20 07:21:18;;;;;;;16.20;15.00;;;16.20;99.90;;;;;;5057748;28;20829;-61
2021/10/20 07:23:46;;;;;;;15.93;14.83;;;16.20;99.90;;;;;;5056626;28;20448;-62
2021/10/20 07:26:14;;;;;;;17.30;16.40;;;16.30;99.90;;;;;;5055598;28;20443;-62
2021/10/20 07:28:41;;;;;;;16.33;15.47;;;16.40;99.90;;;;;;5055045;28;20448;-63
2021/10/20 07:31:08;;;;;;;16.60;15.80;;;16.40;99.90;;;;;;5055417;28;20484;-61
2021/10/20 07:33:35;;;;;;;16.30;15.50;;;16.50;99.90;;;;;;5056222;28;20444;-62
2021/10/20 07:36:01;;;;;;;16.40;15.20;;;16.40;99.90;;;;;;5055437;28;20929;-63
2021/10/20 07:38:28;;;;;;;16.53;15.63;;;16.50;99.90;;;;;;5055281;28;21133;-63
2021/10/20 07:40:56;;;;;;;16.10;15.40;;;16.50;99.90;;;;;;5055275;28;20822;-63
2021/10/20 07:43:23;;;;;;;16.97;15.73;;;16.50;99.90;;;;;;5056189;28;20822;-62
2021/10/20 07:45:49;;;;;;;16.60;15.80;;;16.60;99.90;;;;;;5057056;28;20455;-63
2021/10/20 07:48:16;;;;;;;16.67;15.87;;;16.60;99.90;;;;;;5055789;28;20610;-63
2021/10/20 07:50:43;;;;;;;16.67;15.87;;;16.60;99.90;;;;;;5056135;28;20872;-62
2021/10/20 07:53:10;;;;;;;16.80;15.80;;;16.70;99.90;;;;;;5055480;28;21371;-63
2021/10/20 07:55:37;;;;;;;17.50;16.40;;;16.70;99.90;;;;;;5056303;28;20456;-61
2021/10/20 07:58:06;;;;;;;17.90;16.67;;;16.80;99.90;;;;;;5054374;28;20447;-62
2021/10/20 08:00:32;;;;;;;17.23;16.30;;;16.90;99.90;;;;;;5054751;28;20548;-63
2021/10/20 08:03:01;;;;;;;17.67;16.73;;;16.90;99.90;;;;;;5054645;28;20440;-61
2021/10/20 08:05:28;;;;;;;16.60;15.80;;;16.80;99.90;;;;;;5054892;28;20536;-62
2021/10/20 08:07:54;;;;;;;18.30;17.00;;;16.80;99.90;;;;;;5056373;28;20451;-63
2021/10/20 08:10:24;;;;;;;17.93;17.03;;;16.90;99.90;;;;;;5056509;28;20495;-60
2021/10/20 08:12:51;;;;;;;17.90;17.03;;;16.90;99.90;;;;;;5056441;28;20536;-63
2021/10/20 08:15:20;;;;;;;17.90;16.80;;;16.90;99.90;;;;;;5056135;28;20811;-63
2021/10/20 08:17:47;;;;;;;17.93;16.73;;;17.00;99.90;;;;;;5054897;28;20785;-63
2021/10/20 08:20:18;;;;;;;17.87;16.77;;;16.90;99.90;;;;;;5055199;28;20467;-61
2021/10/20 08:22:46;;;;;;;18.10;17.20;;;17.00;99.90;;;;;;5056999;28;20447;-63
2021/10/20 08:25:14;;;;;;;17.47;16.57;;;17.00;99.90;;;;;;5059527;28;20444;-63
2021/10/20 08:27:41;;;;;;;17.60;16.70;;;17.10;99.90;;;;;;5059617;28;20440;-63
2021/10/20 08:30:17;;;;;;;16.87;15.97;;;17.00;99.90;;;;;;5058896;28;20475;-62
2021/10/20 08:32:46;;;;;;;17.80;16.80;;;17.10;99.90;;;;;;5058922;28;20454;-62
2021/10/20 08:35:16;;;;;;;16.50;15.60;;;17.10;99.90;;;;;;5059647;28;20813;-63
2021/10/20 08:37:43;;;;;;;16.63;15.83;;;17.20;99.90;;;;;;5058533;28;20458;-62
2021/10/20 08:40:11;;;;;;;16.60;15.77;;;17.40;99.90;;;;;;5058275;28;20479;-63
2021/10/20 08:42:38;;;;;;;16.80;16.00;;;17.50;99.90;;;;;;5058675;28;20476;-62
2021/10/20 08:45:07;;;;;;;17.87;16.83;;;17.50;99.90;;;;;;5058943;28;20470;-63
2021/10/20 08:47:34;;;;;;;17.60;16.70;;;17.60;99.90;;;;;;5058866;28;20470;-63
2021/10/20 08:50:04;;;;;;;17.63;16.60;;;17.70;99.90;;;;;;5059286;28;20479;-62
2021/10/20 08:52:31;;;;;;;17.20;16.20;;;17.80;99.90;;;;;;5060388;28;20436;-63
2021/10/20 08:54:58;;;;;;;18.00;16.80;;;17.90;99.90;;;;;;5062087;28;20447;-63
2021/10/20 08:57:25;;;;;;;17.67;16.87;;;17.80;99.90;;;;;;5061407;28;20813;-63
2021/10/20 08:59:52;;;;;;;18.03;17.00;;;17.80;99.90;;;;;;5060261;28;20497;-63
2021/10/20 09:02:21;;;;;;;18.17;17.27;;;17.80;99.90;;;;;;5059721;28;20825;-61
2021/10/20 09:04:53;;;;;;;17.27;16.37;;;17.70;99.90;;;;;;5059570;28;20440;-63
2021/10/20 09:07:21;;;;;;;17.53;16.63;;;17.80;99.90;;;;;;5059303;28;20444;-62
2021/10/20 09:09:52;;;;;;;17.43;16.63;;;17.70;99.90;;;;;;5058660;28;20452;-63
2021/10/20 09:12:25;;;;;;;17.70;16.80;;;17.80;99.90;;;;;;5058502;28;20483;-62
2021/10/20 09:14:56;;;;;;;17.50;16.60;;;18.00;99.90;;;;;;5058291;28;20451;-63
2021/10/20 09:17:22;;;;;;;17.60;16.67;;;18.20;99.90;;;;;;5060373;28;20525;-63
2021/10/20 09:19:49;;;;;;;18.23;17.33;;;18.30;99.90;;;;;;5061124;28;20444;-62
2021/10/20 09:22:16;;;;;;;18.40;17.47;;;18.30;99.90;;;;;;5061281;28;20440;-63
2021/10/20 09:24:45;;;;;;;18.33;17.30;;;18.10;99.90;;;;;;5058928;28;20448;-62
2021/10/20 09:27:20;;;;;;;18.27;17.30;;;18.20;99.90;;;;;;5058232;28;20455;-62
2021/10/20 09:29:47;;;;;;;17.70;16.70;;;18.20;99.90;;;;;;5057297;28;20445;-62
2021/10/20 09:32:13;;;;;;;16.77;16.00;;;18.30;99.90;;;;;;5058106;28;20483;-62
2021/10/20 09:34:41;;;;;;;17.87;16.97;;;18.50;99.90;;;;;;5056984;28;20452;-62
2021/10/20 09:37:08;;;;;;;17.83;16.83;;;18.40;99.90;;;;;;5057955;28;20451;-62
2021/10/20 09:39:38;;;;;;;16.77;15.80;;;18.30;99.90;;;;;;5057254;28;20456;-63
2021/10/20 09:42:12;;;;;;;18.10;17.20;;;18.20;99.90;;;;;;5057526;28;20480;-63
2021/10/20 09:44:48;;;;;;;17.90;17.00;;;18.20;99.90;;;;;;5060325;28;20810;-62
2021/10/20 09:47:16;;;;;;;17.47;16.50;;;18.20;99.90;;;;;;5060119;28;20451;-63
2021/10/20 09:49:50;;;;;;;18.80;17.60;;;18.30;99.90;;;;;;5058448;28;20511;-63
2021/10/20 09:52:17;;;;;;;18.50;17.60;;;18.50;99.90;;;;;;5057267;28;20853;-62
2021/10/20 09:54:45;;;;;;;18.70;17.70;;;18.70;99.90;;;;;;5057293;28;20451;-63
2021/10/20 09:57:15;;;;;;;18.13;17.17;;;18.80;99.90;;;;;;5056950;28;20448;-62
2021/10/20 09:59:43;;;;;;;17.63;16.80;;;18.80;99.90;;;;;;5057307;28;20493;-62
2021/10/20 10:02:10;;;;;;;17.87;17.07;;;18.70;99.90;;;;;;5058614;28;20511;-63
2021/10/20 10:04:37;;;;;;;18.07;17.07;;;18.60;99.90;;;;;;5061418;28;20493;-63
2021/10/20 10:07:05;;;;;;;17.50;16.80;;;18.50;99.90;;;;;;5060125;28;20801;-62
2021/10/20 10:09:32;;;;;;;17.77;16.87;;;18.30;99.90;;;;;;5058739;28;20448;-63
2021/10/20 10:12:02;;;;;;;18.67;17.70;;;18.30;99.90;;;;;;5057527;28;20900;-63
2021/10/20 10:14:35;;;;;;;19.17;17.97;;;18.20;99.90;;;;;;5056468;28;20441;-61
2021/10/20 10:17:04;;;;;;;17.60;16.70;;;18.10;99.90;;;;;;5055930;28;20448;-63
2021/10/20 10:19:35;;;;;;;18.10;17.07;;;17.90;99.90;;;;;;5055762;28;20451;-62
2021/10/20 10:22:20;;;;;;;17.70;16.80;;;17.90;99.90;;;;;;5084670;22;20546;-66
2021/10/20 10:24:46;;;;;;;18.87;17.87;;;17.80;99.90;;;;;;5072571;28;20842;-66
2021/10/20 10:27:13;;;;;;;18.23;17.33;;;17.80;99.90;;;;;;5073024;28;20443;-66
2021/10/20 10:29:49;;;;;;;17.50;16.70;;;17.70;99.90;;;;;;5072662;28;20444;-66
2021/10/20 10:32:20;;;;;;;17.60;16.77;;;17.70;99.90;;;;;;5072808;28;20483;-67
2021/10/20 10:34:48;;;;;;;18.13;17.23;;;17.70;99.90;;;;;;5072855;28;20459;-66
2021/10/20 10:37:25;;;;;;;17.50;16.60;;;17.70;99.90;;;;;;5072605;28;20940;-68
2021/10/20 10:39:53;;;;;;;18.43;17.53;;;17.70;99.90;;;;;;5072605;28;20455;-66
2021/10/20 10:42:30;;;;;;;18.57;17.67;;;17.80;99.90;;;;;;5072866;28;20466;-67
2021/10/20 10:45:11;;;;;;;19.50;18.60;;;17.80;99.90;;;;;;5072637;28;20475;-67
2021/10/20 10:47:55;;;;;;;18.97;17.83;;;18.00;99.90;;;;;;5072747;28;20845;-67
2021/10/20 10:50:37;;;;;;;17.63;16.73;;;18.00;99.90;;;;;;5072387;28;20471;-67
2021/10/20 10:53:05;;;;;;;17.93;16.87;;;18.10;99.90;;;;;;5072556;28;20878;-66
2021/10/20 10:55:33;;;;;;;17.93;17.13;;;18.00;99.90;;;;;;5072507;28;20435;-67
2021/10/20 10:58:01;;;;;;;18.90;17.47;;;17.90;99.90;;;;;;5072268;28;20446;-68
2021/10/20 11:00:36;;;;;;;18.13;17.23;;;17.90;99.90;;;;;;5072251;28;20459;-66
2021/10/20 11:03:27;;;;;;;18.90;17.63;;;17.80;99.90;;;;;;5072344;28;20780;-66
2021/10/20 11:05:58;;;;;;;18.23;17.13;;;17.80;99.90;;;;;;5072220;28;20477;-67
2021/10/20 11:08:26;;;;;;;18.50;17.33;;;17.60;99.90;;;;;;5071928;28;20508;-66
2021/10/20 11:10:53;;;;;;;18.60;17.60;;;17.50;99.90;;;;;;5072188;28;20847;-67
2021/10/20 11:13:20;;;;;;;19.20;18.10;;;17.40;99.90;;;;;;5072873;28;20457;-67
2021/10/20 11:15:49;;;;;;;18.83;17.73;;;17.30;99.90;;;;;;5072712;28;20487;-67
2021/10/20 11:18:16;;;;;;;17.27;16.37;;;17.20;99.90;;;;;;5072299;28;20452;-67
2021/10/20 11:20:45;;;;;;;16.83;15.80;;;17.30;99.90;;;;;;5072148;28;20561;-67
2021/10/20 11:23:15;;;;;;;16.33;15.63;;;17.30;99.90;;;;;;5071979;28;20829;-67
2021/10/20 11:25:43;;;;;;;15.40;14.70;;;17.40;99.90;;;;;;5072357;28;20452;-67
2021/10/20 11:28:10;;;;;;;16.40;15.60;;;17.50;99.90;;;;;;5072424;28;20454;-66
2021/10/20 11:30:38;;;;;;;17.27;16.27;;;17.60;99.90;;;;;;5072090;28;20467;-67
2021/10/20 11:33:15;;;;;;;17.97;16.60;;;17.70;99.90;;;;;;5071765;28;20475;-67
2021/10/20 11:35:43;;;;;;;17.67;16.70;;;17.80;99.90;;;;;;5071717;28;20446;-67
2021/10/20 11:38:12;;;;;;;17.07;16.27;;;17.90;99.90;;;;;;5071406;28;20455;-66
2021/10/20 11:40:41;;;;;;;17.20;16.30;;;18.00;99.90;;;;;;5071500;28;20998;-66
2021/10/20 11:43:14;;;;;;;17.90;17.10;;;18.10;99.90;;;;;;5071544;28;20439;-67
2021/10/20 11:45:41;;;;;;;18.73;17.50;;;18.10;99.90;;;;;;5072171;28;20817;-67
2021/10/20 11:48:08;;;;;;;18.27;17.37;;;18.30;99.90;;;;;;5071565;28;20447;-67
2021/10/20 11:50:37;;;;;;;17.73;16.83;;;18.50;99.90;;;;;;5071434;28;20471;-67
2021/10/20 11:53:07;;;;;;;17.70;16.80;;;18.80;99.90;;;;;;5071677;28;20475;-67
2021/10/20 11:55:40;;;;;;;18.00;17.00;;;18.90;99.90;;;;;;5071596;28;20940;-67
2021/10/20 11:58:07;;;;;;;17.77;16.77;;;19.30;99.90;;;;;;5070735;28;20963;-67
2021/10/20 12:00:34;;;;;;;18.47;17.57;;;19.60;99.90;;;;;;5071490;28;20471;-67
2021/10/20 12:03:01;;;;;;;19.17;18.27;;;19.80;99.90;;;;;;5071283;28;20604;-67
2021/10/20 12:05:29;;;;;;;18.43;17.60;;;20.00;99.90;;;;;;5071229;28;20448;-67
2021/10/20 12:07:57;;;;;;;18.70;17.90;;;20.00;99.90;;;;;;5071112;28;20454;-67
2021/10/20 12:10:24;;;;;;;18.10;17.30;;;20.60;99.90;;;;;;5071211;28;20461;-66
2021/10/20 12:12:51;;;;;;;20.03;18.67;;;20.60;99.90;;;;;;5071242;28;20490;-66
2021/10/20 12:15:21;;;;;;;19.07;18.07;;;20.60;99.90;;;;;;5071445;28;20443;-66
2021/10/20 12:17:50;;;;;;;19.87;18.87;;;20.80;99.90;;;;;;5071150;28;20458;-68
2021/10/20 12:20:18;;;;;;;20.80;19.70;;;20.80;99.90;;;;;;5070978;28;20984;-67
2021/10/20 12:22:47;;;;;;;20.10;19.20;;;20.80;99.90;;;;;;5071150;28;20431;-66
2021/10/20 12:25:16;;;;;;;20.77;19.77;;;21.00;99.90;;;;;;5071339;28;20447;-66
2021/10/20 12:27:44;;;;;;;20.40;19.40;;;20.80;99.90;;;;;;5071217;28;20512;-68
2021/10/20 12:30:13;;;;;;;20.80;19.80;;;20.60;99.90;;;;;;5071041;28;20444;-67
2021/10/20 12:32:40;;;;;;;20.43;19.43;;;20.40;99.90;;;;;;5071135;28;20489;-66
2021/10/20 12:35:10;;;;;;;19.93;18.93;;;20.20;99.90;;;;;;5071239;28;20812;-66
2021/10/20 12:37:39;;;;;;;19.37;18.57;;;20.10;99.90;;;;;;5071156;28;20924;-67
2021/10/20 12:40:16;;;;;;;19.93;19.03;;;20.00;99.90;;;;;;5070986;28;20443;-67